Time;durP1;ratioP1;P1;durP2;ratioP2;P2;SDS_P1;SDS_P2;PMS_P1;PMS_P2;Temp;Humidity;BMP_temperature;BMP_pressure;BME280_temperature;BME280_humidity;BME280_pressure;Samples;Min_cycle;Max_cycle;Signal;HPM_P1;HPM_P2
2023/05/11 00:00:04;;;;;;;11.52;10.43;;;15.30;99.90;;;;;;5069866;28;20032;-65
2023/05/11 00:02:30;;;;;;;12.00;10.77;;;15.20;99.90;;;;;;5069611;28;20041;-65
2023/05/11 00:04:55;;;;;;;11.98;10.77;;;14.40;99.90;;;;;;5065536;28;20040;-65
2023/05/11 00:07:21;;;;;;;12.32;11.02;;;15.40;99.90;;;;;;5052190;28;20126;-65
2023/05/11 00:09:47;;;;;;;12.98;11.63;;;14.90;99.90;;;;;;5061584;28;20040;-65
2023/05/11 00:12:13;;;;;;;13.63;12.05;;;15.30;99.90;;;;;;5068230;28;20037;-65
2023/05/11 00:14:39;;;;;;;15.32;12.80;;;15.10;99.90;;;;;;5068378;28;20117;-65
2023/05/11 00:17:05;;;;;;;13.75;12.40;;;15.40;99.90;;;;;;5069223;28;20059;-65
2023/05/11 00:19:31;;;;;;;14.15;12.68;;;15.10;99.90;;;;;;5061348;28;20143;-65
2023/05/11 00:21:57;;;;;;;15.05;13.02;;;14.10;99.90;;;;;;5069178;28;20234;-65
2023/05/11 00:24:24;;;;;;;18.67;15.10;;;14.30;99.90;;;;;;5067811;28;20522;-65
2023/05/11 00:26:50;;;;;;;16.58;14.70;;;14.20;99.90;;;;;;5069573;28;20045;-65
2023/05/11 00:29:15;;;;;;;19.17;14.65;;;14.80;99.90;;;;;;5067809;28;20063;-65
2023/05/11 00:31:41;;;;;;;22.33;16.75;;;15.40;99.90;;;;;;5069415;28;20127;-65
2023/05/11 00:34:06;;;;;;;20.13;15.93;;;15.20;99.90;;;;;;5066429;28;20428;-65
2023/05/11 00:36:32;;;;;;;18.33;16.02;;;14.30;99.90;;;;;;5069364;28;20398;-65
2023/05/11 00:38:58;;;;;;;16.77;14.98;;;14.10;99.90;;;;;;5067757;28;20125;-65
2023/05/11 00:41:24;;;;;;;16.48;14.88;;;14.10;99.90;;;;;;5068089;28;21201;-65
2023/05/11 00:43:50;;;;;;;13.50;12.20;;;14.70;99.90;;;;;;5068297;28;20045;-65
2023/05/11 00:46:16;;;;;;;12.88;11.57;;;14.20;99.90;;;;;;5067424;28;20041;-65
2023/05/11 00:48:42;;;;;;;13.68;12.18;;;15.30;99.90;;;;;;5068400;28;20494;-65
2023/05/11 00:51:08;;;;;;;14.77;13.27;;;15.10;99.90;;;;;;5068303;28;20072;-65
2023/05/11 00:53:34;;;;;;;14.77;13.38;;;14.20;99.90;;;;;;5062320;28;20048;-65
2023/05/11 00:56:00;;;;;;;18.45;14.15;;;15.20;99.90;;;;;;5068609;28;20045;-65
2023/05/11 00:58:26;;;;;;;16.42;14.75;;;14.50;99.90;;;;;;5064677;28;20044;-65
2023/05/11 01:00:51;;;;;;;16.55;14.68;;;15.00;99.90;;;;;;5064889;28;20582;-65
2023/05/11 01:03:17;;;;;;;14.82;13.40;;;14.50;99.90;;;;;;5066915;28;20079;-65
2023/05/11 01:05:56;;;;;;;20.98;15.27;;;15.10;99.90;;;;;;5067150;28;20033;-65
2023/05/11 01:08:30;;;;;;;23.08;14.98;;;14.40;99.90;;;;;;5068898;28;20044;-65
2023/05/11 01:11:40;;;;;;;16.13;14.20;;;14.50;99.90;;;;;;5067597;28;20044;-65
2023/05/11 01:14:14;;;;;;;16.42;13.82;;;14.70;99.90;;;;;;5058888;28;20052;-65
2023/05/11 01:16:45;;;;;;;14.93;13.38;;;15.50;99.90;;;;;;5069156;28;20040;-65
2023/05/11 01:19:17;;;;;;;16.92;14.27;;;14.60;99.90;;;;;;5068105;28;20109;-65
2023/05/11 01:21:46;;;;;;;17.30;15.18;;;14.20;99.90;;;;;;5068189;28;20525;-65
2023/05/11 01:24:20;;;;;;;19.80;15.98;;;15.50;99.90;;;;;;5066404;28;20071;-65
2023/05/11 01:27:16;;;;;;;19.73;15.10;;;14.20;99.90;;;;;;5067675;28;20044;-65
2023/05/11 01:30:12;;;;;;;31.88;16.48;;;15.40;99.90;;;;;;5072779;28;20041;-65
2023/05/11 01:32:39;;;;;;;25.43;17.60;;;14.30;99.90;;;;;;5072551;28;20490;-65
2023/05/11 01:35:09;;;;;;;20.63;16.25;;;14.60;99.90;;;;;;5072126;28;20052;-65
2023/05/11 01:37:38;;;;;;;28.73;16.13;;;15.70;99.90;;;;;;5072765;28;20045;-65
2023/05/11 01:40:11;;;;;;;36.28;16.27;;;15.70;99.90;;;;;;5072792;28;20063;-65
2023/05/11 01:42:44;;;;;;;25.55;16.13;;;14.40;99.90;;;;;;5069450;28;20052;-65
2023/05/11 01:45:11;;;;;;;24.95;16.73;;;14.50;99.90;;;;;;5072449;28;20040;-65
2023/05/11 01:47:40;;;;;;;26.08;16.30;;;14.30;99.90;;;;;;5071710;28;20418;-66
2023/05/11 01:50:07;;;;;;;28.60;15.43;;;14.30;99.90;;;;;;5072669;28;20465;-65
2023/05/11 01:52:35;;;;;;;51.88;17.58;;;14.30;99.90;;;;;;5069412;28;20041;-65
2023/05/11 01:55:04;;;;;;;22.33;16.63;;;15.80;99.90;;;;;;5071489;28;20502;-65
2023/05/11 01:57:30;;;;;;;61.50;20.88;;;15.50;99.90;;;;;;5071957;28;20049;-65
2023/05/11 01:59:56;;;;;;;61.15;19.45;;;15.10;99.90;;;;;;5072487;28;20047;-66
2023/05/11 02:02:24;;;;;;;29.88;17.40;;;14.60;99.90;;;;;;5072341;28;20398;-65
2023/05/11 02:04:50;;;;;;;58.58;19.33;;;15.90;99.90;;;;;;5070311;28;20048;-65
2023/05/11 02:07:17;;;;;;;41.05;18.27;;;14.90;99.90;;;;;;5069754;28;20119;-65
2023/05/11 02:09:44;;;;;;;27.95;18.60;;;15.20;99.90;;;;;;5072069;28;20402;-65
2023/05/11 02:12:11;;;;;;;49.60;18.58;;;14.70;99.90;;;;;;5070615;28;20062;-65
2023/05/11 02:14:38;;;;;;;18.88;15.30;;;14.90;99.90;;;;;;5072522;28;20043;-65
2023/05/11 02:17:05;;;;;;;28.65;17.42;;;14.80;99.90;;;;;;5072026;28;20409;-65
2023/05/11 02:19:33;;;;;;;23.02;17.02;;;16.00;99.90;;;;;;5071576;28;20044;-65
2023/05/11 02:22:00;;;;;;;24.20;17.92;;;15.60;99.90;;;;;;5072309;28;20315;-65
2023/05/11 02:24:28;;;;;;;25.13;17.48;;;14.60;99.90;;;;;;5070428;28;20052;-65
2023/05/11 02:26:54;;;;;;;54.55;21.00;;;14.90;99.90;;;;;;5072296;28;20475;-65
2023/05/11 02:29:20;;;;;;;28.85;18.48;;;14.50;99.90;;;;;;5065657;28;20067;-65
2023/05/11 02:31:51;;;;;;;25.92;17.88;;;14.60;99.90;;;;;;5071015;28;20111;-65
2023/05/11 02:34:22;;;;;;;47.40;20.70;;;14.90;99.90;;;;;;5071381;28;20123;-65
2023/05/11 02:36:50;;;;;;;28.52;19.90;;;16.10;99.90;;;;;;5064816;28;20450;-65
2023/05/11 02:39:20;;;;;;;59.58;22.98;;;14.70;99.90;;;;;;5062800;28;20127;-66
2023/05/11 02:41:55;;;;;;;27.95;20.23;;;15.10;99.90;;;;;;5064342;28;20159;-65
2023/05/11 02:44:26;;;;;;;51.35;24.45;;;14.60;99.90;;;;;;5064967;28;20041;-66
2023/05/11 02:46:53;;;;;;;33.28;22.85;;;14.70;99.90;;;;;;5054149;28;20048;-65
2023/05/11 02:49:24;;;;;;;36.95;23.40;;;14.80;99.90;;;;;;5066119;28;20060;-65
2023/05/11 02:51:51;;;;;;;33.38;22.30;;;15.90;99.90;;;;;;5059077;28;20498;-66
2023/05/11 02:54:18;;;;;;;52.05;27.23;;;15.00;99.90;;;;;;5066155;28;20045;-65
2023/05/11 02:56:44;;;;;;;44.08;25.08;;;15.70;99.90;;;;;;5055802;28;20036;-65
2023/05/11 02:59:11;;;;;;;48.13;24.20;;;14.80;99.90;;;;;;5071842;28;20048;-65
2023/05/11 03:01:38;;;;;;;40.85;24.23;;;15.70;99.90;;;;;;5070234;28;20055;-65
2023/05/11 03:04:04;;;;;;;37.22;23.92;;;14.90;99.90;;;;;;5067346;28;20431;-65
2023/05/11 03:06:30;;;;;;;40.78;24.13;;;16.00;99.90;;;;;;5068077;28;20503;-65
2023/05/11 03:08:56;;;;;;;44.53;25.08;;;14.80;99.90;;;;;;5069773;28;20045;-65
2023/05/11 03:11:23;;;;;;;41.65;24.98;;;16.30;99.90;;;;;;5065252;28;20386;-65
2023/05/11 03:13:50;;;;;;;34.33;23.40;;;16.10;99.90;;;;;;5071063;28;20040;-65
2023/05/11 03:16:16;;;;;;;31.38;23.40;;;16.50;99.90;;;;;;5069639;28;20040;-65
2023/05/11 03:18:43;;;;;;;35.85;22.85;;;16.30;99.90;;;;;;5069990;28;20575;-66
2023/05/11 03:21:09;;;;;;;34.75;23.98;;;15.10;99.90;;;;;;5063982;28;20036;-66
2023/05/11 03:23:35;;;;;;;42.17;24.80;;;14.90;99.90;;;;;;5071071;28;20554;-65
2023/05/11 03:26:03;;;;;;;45.50;24.70;;;15.30;99.90;;;;;;5070664;28;20036;-65
2023/05/11 03:28:29;;;;;;;55.83;26.73;;;15.10;99.90;;;;;;5068975;28;20481;-65
2023/05/11 03:30:55;;;;;;;40.13;24.20;;;14.90;99.90;;;;;;5066745;28;20498;-65
2023/05/11 03:33:20;;;;;;;39.67;23.27;;;14.90;99.90;;;;;;5085581;28;20029;-65
2023/05/11 03:35:48;;;;;;;50.10;24.88;;;15.00;99.90;;;;;;5065105;28;20452;-65
2023/05/11 03:38:15;;;;;;;36.90;23.30;;;14.90;99.90;;;;;;5066691;28;20048;-66
2023/05/11 03:40:42;;;;;;;37.33;24.05;;;16.50;99.90;;;;;;5055916;28;20053;-65
2023/05/11 03:43:14;;;;;;;33.97;23.00;;;15.40;99.90;;;;;;5068738;28;20536;-65
2023/05/11 03:45:41;;;;;;;38.53;24.30;;;15.20;99.90;;;;;;5066784;28;20101;-65
2023/05/11 03:48:08;;;;;;;42.30;24.30;;;15.40;99.90;;;;;;5070068;28;20044;-66
2023/05/11 03:50:35;;;;;;;41.67;25.00;;;15.90;99.90;;;;;;5069352;28;20112;-65
2023/05/11 03:53:01;;;;;;;51.55;26.15;;;16.50;99.90;;;;;;5066626;28;20045;-66
2023/05/11 03:55:27;;;;;;;51.40;26.55;;;15.00;99.90;;;;;;5047650;28;20499;-65
2023/05/11 03:57:52;;;;;;;53.22;27.48;;;16.40;99.90;;;;;;5053578;28;20119;-65
2023/05/11 04:00:18;;;;;;;59.50;27.98;;;15.90;99.90;;;;;;5065155;28;20055;-65
2023/05/11 04:02:44;;;;;;;60.88;27.48;;;15.00;99.90;;;;;;5069342;28;20052;-66
2023/05/11 04:05:10;;;;;;;47.17;26.05;;;16.00;99.90;;;;;;5069983;28;20036;-66
2023/05/11 04:07:39;;;;;;;43.03;25.17;;;15.50;99.90;;;;;;5068542;28;20056;-65
2023/05/11 04:10:06;;;;;;;49.38;25.95;;;15.40;99.90;;;;;;5062484;28;20460;-66
2023/05/11 04:12:31;;;;;;;55.22;27.25;;;16.30;99.90;;;;;;5069417;28;20124;-65
2023/05/11 04:14:57;;;;;;;45.03;26.30;;;15.20;99.90;;;;;;5066826;28;20127;-65
2023/05/11 04:17:23;;;;;;;84.15;28.50;;;15.40;99.90;;;;;;5069900;28;20396;-65
2023/05/11 04:19:48;;;;;;;51.85;27.70;;;16.70;99.90;;;;;;5064316;28;20061;-65
2023/05/11 04:22:14;;;;;;;87.03;27.58;;;16.70;99.90;;;;;;5066124;28;20044;-65
2023/05/11 04:24:40;;;;;;;63.75;24.60;;;14.90;99.90;;;;;;5069410;28;20478;-65
2023/05/11 04:27:05;;;;;;;79.22;26.65;;;16.60;99.90;;;;;;5070032;28;20086;-65
2023/05/11 04:29:31;;;;;;;65.05;25.17;;;16.20;99.90;;;;;;5067931;28;20072;-65
2023/05/11 04:31:57;;;;;;;78.22;25.73;;;16.30;99.90;;;;;;5068208;28;20398;-65
2023/05/11 04:34:22;;;;;;;67.97;25.77;;;14.80;99.90;;;;;;5068706;28;20039;-66
2023/05/11 04:36:51;;;;;;;89.18;26.67;;;16.30;99.90;;;;;;5061033;28;20127;-66
2023/05/11 04:39:16;;;;;;;82.20;26.60;;;14.90;99.90;;;;;;5068561;28;21230;-66
2023/05/11 04:41:43;;;;;;;72.00;25.40;;;15.90;99.90;;;;;;5054504;28;20521;-65
2023/05/11 04:44:09;;;;;;;123.55;26.25;;;15.30;99.90;;;;;;5068613;28;20040;-65
2023/05/11 04:46:34;;;;;;;102.35;28.02;;;15.00;99.90;;;;;;5056531;28;20052;-65
2023/05/11 04:49:00;;;;;;;89.00;27.52;;;14.70;99.90;;;;;;5065574;28;20122;-65
2023/05/11 04:51:26;;;;;;;106.80;25.27;;;15.90;99.90;;;;;;5056193;28;20049;-65
2023/05/11 04:53:51;;;;;;;88.05;25.08;;;16.40;99.90;;;;;;5065431;28;20060;-65
2023/05/11 04:56:18;;;;;;;136.60;26.23;;;15.70;99.90;;;;;;5065035;28;20434;-65
2023/05/11 04:58:44;;;;;;;101.22;26.10;;;16.30;99.90;;;;;;5065703;28;20513;-65
2023/05/11 05:01:10;;;;;;;111.45;27.20;;;16.40;99.90;;;;;;5063885;28;20036;-66
2023/05/11 05:03:35;;;;;;;100.63;25.80;;;14.80;99.90;;;;;;5064590;28;20032;-65
2023/05/11 05:06:01;;;;;;;115.13;28.27;;;16.30;99.90;;;;;;5066672;28;20131;-65
2023/05/11 05:08:26;;;;;;;106.05;25.27;;;15.60;99.90;;;;;;5067339;28;20036;-65
2023/05/11 05:10:52;;;;;;;145.68;27.30;;;16.50;99.90;;;;;;5066383;28;20048;-66
2023/05/11 05:13:17;;;;;;;114.03;26.08;;;14.80;99.90;;;;;;5068202;28;20032;-66
2023/05/11 05:15:43;;;;;;;137.13;27.33;;;14.90;99.90;;;;;;5068550;28;20041;-66
2023/05/11 05:18:08;;;;;;;113.43;24.95;;;14.60;99.90;;;;;;5066142;28;20036;-65
2023/05/11 05:20:34;;;;;;;121.85;26.58;;;15.70;99.90;;;;;;5062467;28;20037;-65
2023/05/11 05:23:00;;;;;;;117.75;28.02;;;16.40;99.90;;;;;;5064017;28;20048;-66
2023/05/11 05:25:26;;;;;;;88.15;26.27;;;16.10;99.90;;;;;;5063683;28;20044;-65
2023/05/11 05:27:52;;;;;;;95.32;25.13;;;16.90;99.90;;;;;;5065590;28;20040;-65
2023/05/11 05:30:17;;;;;;;99.72;25.25;;;14.70;99.90;;;;;;5064932;28;20090;-66
2023/05/11 05:32:43;;;;;;;127.65;28.50;;;14.80;99.90;;;;;;5062231;28;20037;-66
2023/05/11 05:35:08;;;;;;;76.93;24.25;;;16.20;99.90;;;;;;5080402;28;20108;-66
2023/05/11 05:37:36;;;;;;;56.72;23.33;;;16.30;99.90;;;;;;5064226;28;20117;-66
2023/05/11 05:40:02;;;;;;;83.10;23.50;;;15.20;99.90;;;;;;5065434;28;20119;-65
2023/05/11 05:42:27;;;;;;;96.72;23.20;;;15.70;99.90;;;;;;5065586;28;20053;-66
2023/05/11 05:44:53;;;;;;;66.32;21.98;;;15.40;99.90;;;;;;5067781;28;20098;-66
2023/05/11 05:47:19;;;;;;;66.70;22.50;;;15.40;99.90;;;;;;5045269;28;20139;-65
2023/05/11 05:49:44;;;;;;;56.53;18.63;;;16.00;99.90;;;;;;5065810;28;20079;-66
2023/05/11 05:52:10;;;;;;;96.15;20.50;;;15.70;99.90;;;;;;5064763;28;20032;-65
2023/05/11 05:54:35;;;;;;;58.20;18.77;;;15.80;99.90;;;;;;5060537;28;20072;-65
2023/05/11 05:57:01;;;;;;;94.25;17.33;;;14.90;99.90;;;;;;5058977;28;20796;-65
2023/05/11 05:59:26;;;;;;;79.38;17.92;;;14.90;99.90;;;;;;5066127;28;20110;-66
2023/05/11 06:01:52;;;;;;;87.50;16.58;;;15.00;99.90;;;;;;5066812;28;20044;-65
2023/05/11 06:04:17;;;;;;;75.38;15.32;;;16.40;99.90;;;;;;5065380;28;20572;-66
2023/05/11 06:06:46;;;;;;;70.07;15.98;;;14.70;99.90;;;;;;5064022;28;20052;-65
2023/05/11 06:09:12;;;;;;;73.63;15.63;;;15.00;99.90;;;;;;5067171;28;20033;-66
2023/05/11 06:11:37;;;;;;;59.33;15.00;;;14.50;99.90;;;;;;5064545;28;20037;-66
2023/05/11 06:14:03;;;;;;;73.95;15.18;;;14.70;99.90;;;;;;5066651;28;20037;-66
2023/05/11 06:16:29;;;;;;;101.38;16.77;;;15.90;99.90;;;;;;5069087;28;20048;-66
2023/05/11 06:18:55;;;;;;;60.88;14.48;;;14.60;99.90;;;;;;5063058;28;20095;-64
2023/05/11 06:21:21;;;;;;;81.60;14.30;;;16.30;99.90;;;;;;5063485;28;20471;-66
2023/05/11 06:23:46;;;;;;;50.30;14.27;;;14.90;99.90;;;;;;5064826;28;20112;-64
2023/05/11 06:26:12;;;;;;;47.08;14.23;;;16.40;99.90;;;;;;5068343;28;20457;-63
2023/05/11 06:28:37;;;;;;;31.80;14.10;;;15.40;99.90;;;;;;5067726;28;20040;-69
2023/05/11 06:31:03;;;;;;;56.53;13.88;;;16.40;99.90;;;;;;5068806;28;20046;-68
2023/05/11 06:33:29;;;;;;;50.53;14.70;;;14.70;99.90;;;;;;5069985;28;20040;-66
2023/05/11 06:35:55;;;;;;;44.63;13.73;;;14.90;99.90;;;;;;5062736;28;20083;-66
2023/05/11 06:38:20;;;;;;;27.50;13.85;;;16.50;99.90;;;;;;5068518;28;20052;-65
2023/05/11 06:40:46;;;;;;;23.70;14.98;;;16.30;99.90;;;;;;5064563;28;20074;-66
2023/05/11 06:43:11;;;;;;;21.70;13.73;;;16.60;99.90;;;;;;5059601;28;20044;-66
2023/05/11 06:45:37;;;;;;;24.23;13.77;;;15.30;99.90;;;;;;5068775;28;20025;-65
2023/05/11 06:48:03;;;;;;;19.92;13.82;;;16.70;99.90;;;;;;5070518;28;20037;-65
2023/05/11 06:50:29;;;;;;;24.08;14.07;;;16.00;99.90;;;;;;5044903;28;20082;-65
2023/05/11 06:52:55;;;;;;;15.35;12.77;;;16.30;99.90;;;;;;5057900;28;20037;-66
2023/05/11 06:55:20;;;;;;;14.02;12.25;;;16.20;99.90;;;;;;5049386;28;20036;-66
2023/05/11 06:57:46;;;;;;;13.52;12.13;;;15.40;99.90;;;;;;5037143;28;20143;-66
2023/05/11 07:00:12;;;;;;;12.25;11.05;;;16.50;99.90;;;;;;5053392;28;20048;-66
2023/05/11 07:02:38;;;;;;;12.85;11.55;;;15.70;99.90;;;;;;5066645;28;20032;-66
2023/05/11 07:05:03;;;;;;;12.43;11.07;;;15.40;99.90;;;;;;5069512;28;20076;-66
2023/05/11 07:07:29;;;;;;;11.38;10.38;;;15.10;99.90;;;;;;5067476;28;20513;-66
2023/05/11 07:09:54;;;;;;;11.45;10.35;;;14.90;99.90;;;;;;5068417;28;20039;-66
2023/05/11 07:12:21;;;;;;;11.05;9.57;;;15.50;99.90;;;;;;5067193;28;20043;-66
2023/05/11 07:14:47;;;;;;;10.13;9.13;;;15.30;99.90;;;;;;5067707;28;20047;-66
2023/05/11 07:17:12;;;;;;;9.90;9.00;;;16.80;99.90;;;;;;5084140;28;20127;-66
2023/05/11 07:19:38;;;;;;;9.45;8.65;;;16.20;99.90;;;;;;5066315;28;20046;-66
2023/05/11 07:22:04;;;;;;;9.98;9.07;;;16.30;99.90;;;;;;5065043;28;20394;-66
2023/05/11 07:24:30;;;;;;;9.57;8.75;;;16.80;99.90;;;;;;5064550;28;20394;-66
2023/05/11 07:26:56;;;;;;;8.82;8.02;;;17.00;99.90;;;;;;5067062;28;20048;-66
2023/05/11 07:29:21;;;;;;;11.70;7.90;;;15.90;99.90;;;;;;5064671;28;20049;-66
2023/05/11 07:31:47;;;;;;;7.47;6.78;;;16.50;99.90;;;;;;5077415;28;20088;-66
2023/05/11 07:34:13;;;;;;;7.00;6.40;;;16.70;99.90;;;;;;5070777;28;20032;-66
2023/05/11 07:36:38;;;;;;;9.07;5.97;;;15.80;99.90;;;;;;5059760;28;20050;-66
2023/05/11 07:39:04;;;;;;;5.35;4.95;;;15.80;99.90;;;;;;5065959;28;20109;-66
2023/05/11 07:41:30;;;;;;;5.20;4.80;;;15.90;99.90;;;;;;5067821;28;20340;-66
2023/05/11 07:43:55;;;;;;;4.50;4.10;;;15.80;99.90;;;;;;5070369;28;20033;-66
2023/05/11 07:46:21;;;;;;;5.05;4.60;;;17.30;99.90;;;;;;5064257;28;20047;-66
2023/05/11 07:48:48;;;;;;;4.43;4.13;;;15.80;99.90;;;;;;5065945;28;20054;-66
2023/05/11 07:51:13;;;;;;;4.85;4.35;;;17.00;99.90;;;;;;5062713;28;20044;-66
2023/05/11 07:53:39;;;;;;;4.20;3.90;;;17.10;99.90;;;;;;5065929;28;20060;-66
2023/05/11 07:56:05;;;;;;;4.65;4.25;;;16.40;99.90;;;;;;5065086;28;20037;-66
2023/05/11 07:58:31;;;;;;;4.50;4.10;;;17.40;99.90;;;;;;5061873;28;20036;-66
2023/05/11 08:00:57;;;;;;;4.32;3.90;;;17.70;99.90;;;;;;5066411;28;20055;-66
2023/05/11 08:03:22;;;;;;;4.15;3.80;;;17.10;99.90;;;;;;5051199;28;20048;-66
2023/05/11 08:05:48;;;;;;;4.50;4.10;;;16.90;99.90;;;;;;5069388;28;20036;-66
2023/05/11 08:08:14;;;;;;;4.70;4.20;;;16.60;99.90;;;;;;5066996;28;20044;-66
2023/05/11 08:10:40;;;;;;;4.75;3.97;;;17.80;99.90;;;;;;5063534;28;20033;-66
2023/05/11 08:13:06;;;;;;;4.57;4.18;;;16.70;99.90;;;;;;5046400;28;20127;-66
2023/05/11 08:15:32;;;;;;;4.30;3.90;;;17.20;99.90;;;;;;5064736;28;20044;-66
2023/05/11 08:17:58;;;;;;;4.45;4.00;;;16.90;99.90;;;;;;5059777;28;20122;-66
2023/05/11 08:20:24;;;;;;;4.78;4.38;;;18.50;99.90;;;;;;5067153;28;20040;-66
2023/05/11 08:22:50;;;;;;;4.93;4.50;;;17.60;99.90;;;;;;5068906;28;20123;-66
2023/05/11 08:25:15;;;;;;;5.05;4.55;;;17.50;99.90;;;;;;5064920;28;20131;-66
2023/05/11 08:27:41;;;;;;;6.20;5.15;;;18.10;99.90;;;;;;5068610;28;20070;-66
2023/05/11 08:30:08;;;;;;;6.22;4.78;;;17.10;99.90;;;;;;5048968;28;20075;-66
2023/05/11 08:32:34;;;;;;;5.50;5.00;;;16.90;99.90;;;;;;5063253;28;20111;-66
2023/05/11 08:35:00;;;;;;;5.95;5.45;;;17.70;99.90;;;;;;5066241;28;20025;-66
2023/05/11 08:37:26;;;;;;;5.78;5.28;;;17.90;99.90;;;;;;5065560;28;20066;-66
2023/05/11 08:39:51;;;;;;;6.20;5.60;;;16.90;99.90;;;;;;5063517;28;20064;-66
2023/05/11 08:42:18;;;;;;;6.70;6.10;;;16.70;99.90;;;;;;5065668;28;20117;-66
2023/05/11 08:44:45;;;;;;;6.70;6.10;;;17.00;99.90;;;;;;5066038;28;20040;-66
2023/05/11 08:47:11;;;;;;;6.55;6.00;;;16.80;99.90;;;;;;5064008;28;20044;-66
2023/05/11 08:49:37;;;;;;;7.40;6.70;;;18.10;99.90;;;;;;5063421;28;20037;-66
2023/05/11 08:52:04;;;;;;;8.35;6.65;;;16.90;99.90;;;;;;5046940;28;20051;-66
2023/05/11 08:54:30;;;;;;;7.50;6.80;;;17.80;99.90;;;;;;5059870;28;20044;-66
2023/05/11 08:56:58;;;;;;;9.23;7.60;;;17.30;99.90;;;;;;5065347;28;20085;-66
2023/05/11 08:59:28;;;;;;;8.43;7.63;;;17.90;99.90;;;;;;5064544;28;20048;-66
2023/05/11 09:01:54;;;;;;;9.00;8.13;;;18.20;99.90;;;;;;5063159;28;20402;-66
2023/05/11 09:04:23;;;;;;;9.27;8.32;;;17.90;99.90;;;;;;5060908;28;20043;-66
2023/05/11 09:06:49;;;;;;;9.30;8.50;;;17.20;99.90;;;;;;5065439;28;20081;-67
2023/05/11 09:09:17;;;;;;;9.07;8.18;;;17.80;99.90;;;;;;5067403;28;20044;-66
2023/05/11 09:11:44;;;;;;;9.43;8.57;;;18.30;99.90;;;;;;5069339;28;20040;-66
2023/05/11 09:14:11;;;;;;;9.70;8.80;;;17.20;99.90;;;;;;5054980;28;20414;-66
2023/05/11 09:16:37;;;;;;;9.93;9.02;;;17.80;99.90;;;;;;5062726;28;20042;-67
2023/05/11 09:19:02;;;;;;;10.45;9.35;;;18.60;99.90;;;;;;5061282;28;20119;-66
2023/05/11 09:21:31;;;;;;;10.38;9.20;;;18.50;99.90;;;;;;5056078;28;20063;-66
2023/05/11 09:24:00;;;;;;;10.05;9.05;;;17.30;99.90;;;;;;5068804;28;20032;-66
2023/05/11 09:26:30;;;;;;;10.57;9.57;;;17.30;99.90;;;;;;5057004;28;20075;-66
2023/05/11 09:28:57;;;;;;;10.52;9.25;;;18.70;99.90;;;;;;5060037;28;20498;-66
2023/05/11 09:31:42;;;;;;;12.38;9.75;;;17.40;99.90;;;;;;5064284;28;20040;-66
2023/05/11 09:34:15;;;;;;;10.70;9.63;;;18.10;99.90;;;;;;5060991;28;20053;-67
2023/05/11 09:36:50;;;;;;;10.55;9.52;;;18.10;99.90;;;;;;5066975;28;20131;-67
2023/05/11 09:39:18;;;;;;;9.70;8.70;;;18.20;99.90;;;;;;5067737;28;20072;-67
2023/05/11 09:41:44;;;;;;;10.48;9.55;;;18.40;99.90;;;;;;5052030;28;20053;-66
2023/05/11 09:44:15;;;;;;;11.25;9.43;;;18.70;99.90;;;;;;5076923;28;20037;-67
2023/05/11 09:46:43;;;;;;;10.18;9.05;;;18.50;99.90;;;;;;5068730;28;20490;-66
2023/05/11 09:49:09;;;;;;;9.52;8.63;;;17.80;99.90;;;;;;5063153;28;20105;-66
2023/05/11 09:51:39;;;;;;;10.48;9.57;;;18.40;99.90;;;;;;5071161;28;20058;-67
2023/05/11 09:54:19;;;;;;;11.13;10.13;;;18.00;99.90;;;;;;5069535;28;20581;-66
2023/05/11 09:56:53;;;;;;;9.70;8.80;;;17.90;99.90;;;;;;5069634;28;20076;-66
2023/05/11 09:59:41;;;;;;;11.07;10.07;;;18.70;99.90;;;;;;5066679;28;20127;-67
2023/05/11 10:02:16;;;;;;;11.23;10.13;;;18.80;99.90;;;;;;5063883;28;20414;-66
2023/05/11 10:04:41;;;;;;;11.68;10.57;;;18.20;99.90;;;;;;5064364;28;20147;-67
2023/05/11 10:07:07;;;;;;;13.65;12.25;;;18.80;99.90;;;;;;5068881;28;20513;-67
2023/05/11 10:09:33;;;;;;;14.05;12.70;;;17.90;99.90;;;;;;5060329;28;20124;-67
2023/05/11 10:12:00;;;;;;;15.20;13.80;;;17.90;99.90;;;;;;5059813;28;20044;-66
2023/05/11 10:14:28;;;;;;;15.90;14.30;;;18.10;99.90;;;;;;5070529;28;20029;-66
2023/05/11 10:16:57;;;;;;;14.52;13.02;;;18.50;99.90;;;;;;5068897;28;20560;-67
2023/05/11 10:19:23;;;;;;;15.15;13.20;;;18.20;99.90;;;;;;5064363;28;20124;-67
2023/05/11 10:21:51;;;;;;;15.65;13.95;;;19.00;99.90;;;;;;5061342;28;20051;-67
2023/05/11 10:24:17;;;;;;;15.65;13.98;;;18.50;99.90;;;;;;5051508;28;20048;-66
2023/05/11 10:26:43;;;;;;;13.60;12.30;;;18.10;99.90;;;;;;5068234;28;20131;-66
2023/05/11 10:29:09;;;;;;;12.95;11.55;;;18.40;99.90;;;;;;5071631;28;20219;-67
2023/05/11 10:31:36;;;;;;;13.18;11.88;;;18.50;99.90;;;;;;5070989;28;20033;-67
2023/05/11 10:34:03;;;;;;;11.70;10.43;;;19.00;99.90;;;;;;5069587;28;20040;-65
2023/05/11 10:36:29;;;;;;;10.52;9.48;;;19.10;99.90;;;;;;5069406;28;20046;-66
2023/05/11 10:38:55;;;;;;;10.68;9.57;;;18.50;99.90;;;;;;5064465;28;20113;-66
2023/05/11 10:41:40;;;;;;;10.25;9.15;;;19.00;99.90;;;;;;5069641;28;20067;-66
2023/05/11 10:44:19;;;;;;;10.30;9.27;;;19.10;99.90;;;;;;5048970;28;20068;-66
2023/05/11 10:47:06;;;;;;;9.98;8.98;;;18.80;99.90;;;;;;5064666;28;20063;-66
2023/05/11 10:50:07;;;;;;;10.02;9.02;;;19.50;99.90;;;;;;5078676;28;20051;-66
2023/05/11 10:52:54;;;;;;;8.80;7.90;;;19.50;99.90;;;;;;5067497;28;20048;-66
2023/05/11 10:55:29;;;;;;;8.80;7.45;;;19.00;99.90;;;;;;5069331;28;20040;-66
2023/05/11 10:58:32;;;;;;;8.55;6.70;;;19.20;99.90;;;;;;5067612;28;20047;-67
2023/05/11 11:01:29;;;;;;;7.05;6.35;;;20.10;99.90;;;;;;5067022;28;20060;-66
2023/05/11 11:04:01;;;;;;;6.47;5.88;;;19.80;99.90;;;;;;5063966;28;20051;-66
2023/05/11 11:06:28;;;;;;;6.03;5.53;;;19.30;99.90;;;;;;5050052;28;20052;-67
2023/05/11 11:09:14;;;;;;;6.00;5.40;;;19.80;99.90;;;;;;5066235;28;20119;-67
2023/05/11 11:11:45;;;;;;;5.30;4.80;;;19.60;99.90;;;;;;5073166;28;20036;-67
2023/05/11 11:14:13;;;;;;;4.47;4.07;;;19.80;99.90;;;;;;5063824;28;20044;-66
2023/05/11 11:16:39;;;;;;;4.82;4.40;;;20.00;99.90;;;;;;5067112;28;20413;-67
2023/05/11 11:19:30;;;;;;;5.13;4.70;;;20.00;99.90;;;;;;5065139;28;20509;-67
2023/05/11 11:22:01;;;;;;;8.77;5.88;;;20.10;99.90;;;;;;5065839;28;20041;-67
2023/05/11 11:24:37;;;;;;;5.80;5.20;;;20.00;99.90;;;;;;5067536;28;20761;-67
2023/05/11 11:27:04;;;;;;;6.65;5.95;;;20.20;99.90;;;;;;5069683;28;20149;-67
2023/05/11 11:29:30;;;;;;;6.50;5.68;;;20.00;99.90;;;;;;5069559;28;20094;-67
2023/05/11 11:32:24;;;;;;;7.00;6.07;;;19.60;99.90;;;;;;5086102;28;20040;-66
2023/05/11 11:34:50;;;;;;;6.07;5.47;;;19.50;99.90;;;;;;5060439;28;20072;-66
2023/05/11 11:37:21;;;;;;;6.68;5.93;;;19.90;99.90;;;;;;5056409;28;20118;-66
2023/05/11 11:39:48;;;;;;;7.15;6.45;;;19.50;99.90;;;;;;5070732;28;20058;-67
2023/05/11 11:42:29;;;;;;;9.23;6.38;;;19.70;99.90;;;;;;5069005;28;20071;-67
2023/05/11 11:45:28;;;;;;;6.88;6.18;;;19.80;99.90;;;;;;5070580;28;20052;-67
2023/05/11 11:48:12;;;;;;;6.78;6.07;;;19.40;99.90;;;;;;5068672;28;20072;-67
2023/05/11 11:50:42;;;;;;;8.07;5.90;;;19.80;99.90;;;;;;5063687;28;20044;-67
2023/05/11 11:53:32;;;;;;;6.65;5.40;;;19.60;99.90;;;;;;5068669;28;20045;-67
2023/05/11 11:55:57;;;;;;;5.82;4.85;;;20.00;1.00;;;;;;5064611;28;20040;-67
2023/05/11 11:58:41;;;;;;;5.53;5.03;;;19.60;38.60;;;;;;5051226;28;20743;-66
2023/05/11 12:01:12;;;;;;;5.82;5.32;;;19.70;1.00;;;;;;5062924;28;20094;-67
2023/05/11 12:03:38;;;;;;;5.20;4.70;;;19.70;99.90;;;;;;5065042;28;20047;-67
2023/05/11 12:06:06;;;;;;;5.32;4.82;;;19.70;1.00;;;;;;5060621;28;20147;-67
2023/05/11 12:08:32;;;;;;;6.95;5.68;;;19.70;99.90;;;;;;5063720;28;20147;-66
2023/05/11 12:10:59;;;;;;;6.60;5.97;;;20.00;99.90;;;;;;5083239;28;20127;-67
2023/05/11 12:13:25;;;;;;;6.28;5.07;;;19.60;1.00;;;;;;5064568;28;20045;-67
2023/05/11 12:16:14;;;;;;;5.78;5.13;;;19.90;1.00;;;;;;5057964;28;20059;-67
2023/05/11 12:18:41;;;;;;;5.20;4.80;;;19.80;99.90;;;;;;5064513;28;20036;-66
2023/05/11 12:21:19;;;;;;;5.35;4.85;;;19.40;1.00;;;;;;5064774;28;20498;-67
2023/05/11 12:23:53;;;;;;;6.05;5.50;;;19.70;99.90;;;;;;5068697;28;20036;-67
2023/05/11 12:26:20;;;;;;;5.80;5.20;;;19.40;99.90;;;;;;5050434;28;20578;-67
2023/05/11 12:28:49;;;;;;;5.75;5.25;;;20.10;99.90;;;;;;5067951;28;20379;-67
2023/05/11 12:31:16;;;;;;;5.95;5.35;;;19.30;99.90;;;;;;5065746;28;20051;-66
2023/05/11 12:33:49;;;;;;;6.68;5.45;;;19.60;99.90;;;;;;5069155;28;20036;-66
2023/05/11 12:36:16;;;;;;;6.60;6.00;;;19.70;99.90;;;;;;5066708;28;20467;-66
2023/05/11 12:38:46;;;;;;;9.43;8.13;;;19.80;99.90;;;;;;5067063;28;20063;-66